Moonlight II — 9HFR8 — position and weather

sailwx.info

Track history (hours):
 
Tides and Currents Weather Stations Pressure Air Temp Water Temp Dewpoint Dewpoint Depression Visibility Wind Speed Wind Dir Waves Ship Positions

Moonlight II

Last reported at 2016-Jul-31 02:28 UTC. Time now 2016-Jul-31 03:32 UTC.
Position N 39°12' E 009°07'.

Length 82 m; draft 4.2 m.

Type: Ship. MMSI: 215934000.

Date/timePositionNaut miles runAvg speedWind from/ knotsBaromVisibWave heightAir tempDewpointWater temp
2016-Jul-31 02:28N 39°12' E 009°07'0 0.0
2016-Jul-31 01:31N 39°12' E 009°07'0 0.0
2016-Jul-31 00:31N 39°12' E 009°07'0 0.0
2016-Jul-30 22:31N 39°12' E 009°07'0 0.0
2016-Jul-30 21:31N 39°12' E 009°07'0 0.0
2016-Jul-30 20:31N 39°12' E 009°07'0 0.0
2016-Jul-30 19:34N 39°12' E 009°07'0 0.0
2016-Jul-30 18:28N 39°12' E 009°07'0 0.0
2016-Jul-30 17:31N 39°12' E 009°07'0 0.0
2016-Jul-30 16:31N 39°12' E 009°07'0 0.0
2016-Jul-30 15:31N 39°12' E 009°07'0 0.0
2016-Jul-30 14:31N 39°12' E 009°07'0 0.0
2016-Jul-30 13:31N 39°12' E 009°07'0 0.0
2016-Jul-30 12:31N 39°12' E 009°07'0 0.0
2016-Jul-30 11:31N 39°12' E 009°07'0 0.0
2016-Jul-30 10:31N 39°12' E 009°07'0 0.0
2016-Jul-30 09:31N 39°12' E 009°07'0 0.0
2016-Jul-30 08:31N 39°12' E 009°07'0 0.0
2016-Jul-30 07:31N 39°12' E 009°07'0 0.0
2016-Jul-30 06:31N 39°12' E 009°07'0 0.0
2016-Jul-30 05:31N 39°12' E 009°07'0 0.0
2016-Jul-30 04:31N 39°12' E 009°07'0 0.0
2016-Jul-30 03:31N 39°12' E 009°07'0 0.0
2016-Jul-30 02:31N 39°12' E 009°07'0 0.0
2016-Jul-30 01:31N 39°12' E 009°07'0 0.0
2016-Jul-30 00:31N 39°12' E 009°07'0 0.0
2016-Jul-29 23:31N 39°12' E 009°07'0 0.0
2016-Jul-29 22:31N 39°12' E 009°07'0 0.0
2016-Jul-29 21:31N 39°12' E 009°07'0 0.0
2016-Jul-29 20:34N 39°12' E 009°07'0 0.0
2016-Jul-29 19:28N 39°12' E 009°07'0 0.0
2016-Jul-29 18:31N 39°12' E 009°07'0 0.0
2016-Jul-29 17:31N 39°12' E 009°07'0 0.0
2016-Jul-29 16:31N 39°12' E 009°07'0 0.0
2016-Jul-29 15:33N 39°12' E 009°07'7 7.4
2016-Jul-29 14:33N 39°05' E 009°07'1313.4
2016-Jul-29 13:33N 38°55' E 008°57'8 7.0
2016-Jul-29 12:22N 38°54' E 008°46'0 0.0
2016-Jul-29 11:31N 38°54' E 008°46'0 0.0
2016-Jul-29 10:31N 38°54' E 008°46'  
2016-Jul-24 16:25N 43°26' E 007°25'1312.7
2016-Jul-24 15:21N 43°39' E 007°18'3 3.2
2016-Jul-24 14:28N 43°42' E 007°17'0 0.0
2016-Jul-24 13:28N 43°42' E 007°17'0 0.0
2016-Jul-24 12:22N 43°42' E 007°17'0 0.0
2016-Jul-24 11:22N 43°42' E 007°17'0 0.0
2016-Jul-24 10:28N 43°42' E 007°17'0 0.0
2016-Jul-24 09:28N 43°42' E 007°17'0 0.2
2016-Jul-24 08:33N 43°42' E 007°17'1010.1
2016-Jul-24 07:33N 43°32' E 007°11'51 1.3
2016-Jul-22 16:30N 43°02' E 006°15'1111.9
2016-Jul-22 15:33N 43°01' E 006°31'1313.2
2016-Jul-22 14:33N 43°10' E 006°43'1613.4
2016-Jul-22 13:22N 43°22' E 006°58'1113.4
2016-Jul-22 12:33N 43°30' E 007°08'1212.4
2016-Jul-22 11:33N 43°41' E 007°17'1 0.9
2016-Jul-22 10:23N 43°42' E 007°17'0 0.0
2016-Jul-22 09:29N 43°42' E 007°17'0 0.0
2016-Jul-22 08:29N 43°42' E 007°17'0 0.0
2016-Jul-22 07:29N 43°42' E 007°17'0 0.0
2016-Jul-22 04:29N 43°42' E 007°17'0 0.0
2016-Jul-22 03:29N 43°42' E 007°17'0 0.0
2016-Jul-22 02:29N 43°42' E 007°17'0 0.0
2016-Jul-22 01:29N 43°42' E 007°17'0 0.0
2016-Jul-22 00:29N 43°42' E 007°17'0 0.0
2016-Jul-21 23:23N 43°42' E 007°17'0 0.0
2016-Jul-21 22:29N 43°42' E 007°17'0 0.0
2016-Jul-21 21:29N 43°42' E 007°17'0 0.0
2016-Jul-21 20:29N 43°42' E 007°17'0 0.0
2016-Jul-21 19:29N 43°42' E 007°17'0 0.0
2016-Jul-21 18:29N 43°42' E 007°17'0 0.0
2016-Jul-21 17:29N 43°42' E 007°17'0 0.0
2016-Jul-21 16:11N 43°42' E 007°17'0 0.0
2016-Jul-21 15:05N 43°42' E 007°17'0 0.0
2016-Jul-21 14:17N 43°42' E 007°17'0 0.0
2016-Jul-21 13:29N 43°42' E 007°17'0 0.0
2016-Jul-21 12:23N 43°42' E 007°17'0 0.0
2016-Jul-21 11:17N 43°42' E 007°17'0 0.0
2016-Jul-21 10:29N 43°42' E 007°17'0 0.0
2016-Jul-21 09:33N 43°42' E 007°17'8 8.1
2016-Jul-21 08:33N 43°34' E 007°12'8 8.3
2016-Jul-21 07:33N 43°32' E 007°01'0 0.5
2016-Jul-21 06:32N 43°32' E 007°01'0 0.0
2016-Jul-21 05:32N 43°32' E 007°01'0 0.0
2016-Jul-21 04:32N 43°32' E 007°01'0 0.0
2016-Jul-21 03:32N 43°32' E 007°01'0 0.0
2016-Jul-21 02:32N 43°32' E 007°01'  
Track history (hours):
 
Tides and Currents Weather Stations Pressure Air Temp Water Temp Dewpoint Dewpoint Depression Visibility Wind Speed Wind Dir Waves Ship Positions

Moonlight II

Last reported at 2016-Jul-31 02:28 UTC. Time now 2016-Jul-31 03:32 UTC.
Position N 39°12' E 009°07'.

Length 82 m; draft 4.2 m.

Type: Ship. MMSI: 215934000.

Date/timePositionNaut miles runAvg speedWind from/ knotsBaromVisibWave heightAir tempDewpointWater temp
2016-Jul-31 02:28N 39°12' E 009°07'0 0.0
2016-Jul-31 01:31N 39°12' E 009°07'0 0.0
2016-Jul-31 00:31N 39°12' E 009°07'0 0.0
2016-Jul-30 22:31N 39°12' E 009°07'0 0.0
2016-Jul-30 21:31N 39°12' E 009°07'0 0.0
2016-Jul-30 20:31N 39°12' E 009°07'0 0.0
2016-Jul-30 19:34N 39°12' E 009°07'0 0.0
2016-Jul-30 18:28N 39°12' E 009°07'0 0.0
2016-Jul-30 17:31N 39°12' E 009°07'0 0.0
2016-Jul-30 16:31N 39°12' E 009°07'0 0.0
2016-Jul-30 15:31N 39°12' E 009°07'0 0.0
2016-Jul-30 14:31N 39°12' E 009°07'0 0.0
2016-Jul-30 13:31N 39°12' E 009°07'0 0.0
2016-Jul-30 12:31N 39°12' E 009°07'0 0.0
2016-Jul-30 11:31N 39°12' E 009°07'0 0.0
2016-Jul-30 10:31N 39°12' E 009°07'0 0.0
2016-Jul-30 09:31N 39°12' E 009°07'0 0.0
2016-Jul-30 08:31N 39°12' E 009°07'0 0.0
2016-Jul-30 07:31N 39°12' E 009°07'0 0.0
2016-Jul-30 06:31N 39°12' E 009°07'0 0.0
2016-Jul-30 05:31N 39°12' E 009°07'0 0.0
2016-Jul-30 04:31N 39°12' E 009°07'0 0.0
2016-Jul-30 03:31N 39°12' E 009°07'0 0.0
2016-Jul-30 02:31N 39°12' E 009°07'0 0.0
2016-Jul-30 01:31N 39°12' E 009°07'0 0.0
2016-Jul-30 00:31N 39°12' E 009°07'0 0.0
2016-Jul-29 23:31N 39°12' E 009°07'0 0.0
2016-Jul-29 22:31N 39°12' E 009°07'0 0.0
2016-Jul-29 21:31N 39°12' E 009°07'0 0.0
2016-Jul-29 20:34N 39°12' E 009°07'0 0.0
2016-Jul-29 19:28N 39°12' E 009°07'0 0.0
2016-Jul-29 18:31N 39°12' E 009°07'0 0.0
2016-Jul-29 17:31N 39°12' E 009°07'0 0.0
2016-Jul-29 16:31N 39°12' E 009°07'0 0.0
2016-Jul-29 15:33N 39°12' E 009°07'7 7.4
2016-Jul-29 14:33N 39°05' E 009°07'1313.4
2016-Jul-29 13:33N 38°55' E 008°57'8 7.0
2016-Jul-29 12:22N 38°54' E 008°46'0 0.0
2016-Jul-29 11:31N 38°54' E 008°46'0 0.0
2016-Jul-29 10:31N 38°54' E 008°46'  
2016-Jul-24 16:25N 43°26' E 007°25'1312.7
2016-Jul-24 15:21N 43°39' E 007°18'3 3.2
2016-Jul-24 14:28N 43°42' E 007°17'0 0.0
2016-Jul-24 13:28N 43°42' E 007°17'0 0.0
2016-Jul-24 12:22N 43°42' E 007°17'0 0.0
2016-Jul-24 11:22N 43°42' E 007°17'0 0.0
2016-Jul-24 10:28N 43°42' E 007°17'0 0.0
2016-Jul-24 09:28N 43°42' E 007°17'0 0.2
2016-Jul-24 08:33N 43°42' E 007°17'1010.1
2016-Jul-24 07:33N 43°32' E 007°11'51 1.3
2016-Jul-22 16:30N 43°02' E 006°15'1111.9
2016-Jul-22 15:33N 43°01' E 006°31'1313.2
2016-Jul-22 14:33N 43°10' E 006°43'1613.4
2016-Jul-22 13:22N 43°22' E 006°58'1113.4
2016-Jul-22 12:33N 43°30' E 007°08'1212.4
2016-Jul-22 11:33N 43°41' E 007°17'1 0.9
2016-Jul-22 10:23N 43°42' E 007°17'0 0.0
2016-Jul-22 09:29N 43°42' E 007°17'0 0.0
2016-Jul-22 08:29N 43°42' E 007°17'0 0.0
2016-Jul-22 07:29N 43°42' E 007°17'0 0.0
2016-Jul-22 04:29N 43°42' E 007°17'0 0.0
2016-Jul-22 03:29N 43°42' E 007°17'0 0.0
2016-Jul-22 02:29N 43°42' E 007°17'0 0.0
2016-Jul-22 01:29N 43°42' E 007°17'0 0.0
2016-Jul-22 00:29N 43°42' E 007°17'0 0.0
2016-Jul-21 23:23N 43°42' E 007°17'0 0.0
2016-Jul-21 22:29N 43°42' E 007°17'0 0.0
2016-Jul-21 21:29N 43°42' E 007°17'0 0.0
2016-Jul-21 20:29N 43°42' E 007°17'0 0.0
2016-Jul-21 19:29N 43°42' E 007°17'0 0.0
2016-Jul-21 18:29N 43°42' E 007°17'0 0.0
2016-Jul-21 17:29N 43°42' E 007°17'0 0.0
2016-Jul-21 16:11N 43°42' E 007°17'0 0.0
2016-Jul-21 15:05N 43°42' E 007°17'0 0.0
2016-Jul-21 14:17N 43°42' E 007°17'0 0.0
2016-Jul-21 13:29N 43°42' E 007°17'0 0.0
2016-Jul-21 12:23N 43°42' E 007°17'0 0.0
2016-Jul-21 11:17N 43°42' E 007°17'0 0.0
2016-Jul-21 10:29N 43°42' E 007°17'0 0.0
2016-Jul-21 09:33N 43°42' E 007°17'8 8.1
2016-Jul-21 08:33N 43°34' E 007°12'8 8.3
2016-Jul-21 07:33N 43°32' E 007°01'0 0.5
2016-Jul-21 06:32N 43°32' E 007°01'0 0.0
2016-Jul-21 05:32N 43°32' E 007°01'0 0.0
2016-Jul-21 04:32N 43°32' E 007°01'0 0.0
2016-Jul-21 03:32N 43°32' E 007°01'0 0.0
2016-Jul-21 02:32N 43°32' E 007°01'  

Dump ship's entire track history